Currently 63°F in Lake Elsinore, California, USA
63°F
78°F / 57°F
7 mph SW
0.00"
Monday, April 24, 2017 7:43 PM PDT

Lake Elsinore, California Weather Summary
Last 36 Hours

Temperature Winds Hourly Humidity Dewpoint
Time Report Norm Report Norm Max Gusts Precip. Rpt. Norm Rpt. Norm Pressure
1Mon 07:43 PM  63.2°F  64°F  7 mph SW  4 mph  13 mph  0.00"  65%  65%  51°F  52°F  29.88"
Mon 07:00 PM  65.9°F  68°F  8 mph SW  5 mph  16 mph  0.00"  58%  59%  50°F  52°F  29.87"
Mon 06:00 PM  69.1°F  72°F  6 mph SW  6 mph  19 mph  0.00"  51%  52%  50°F  53°F  29.87"
Mon 05:00 PM  71.3°F  75°F  13 mph S  7 mph  25 mph  0.00"  47%  48%  50°F  53°F  29.86"
Mon 04:00 PM  72.7°F  77°F  11 mph SW  7 mph  24 mph  0.00"  47%  45%  50°F  53°F  29.88"
2Mon 03:00 PM  78.0°F  77°F  10 mph S  5 mph  13 mph  0.00"  38%  43%  49°F  53°F  29.90"
Mon 02:00 PM  74.3°F  77°F  2 mph SE  5 mph  10 mph  0.00"  42%  43%  49°F  52°F  29.92"
Mon 01:00 PM  72.8°F  76°F  3 mph SE  4 mph  9 mph  0.00"  44%  45%  49°F  52°F  29.95"
Mon 12:00 PM  69.9°F  73°F  3 mph S  3 mph  9 mph  0.00"  47%  48%  48°F  52°F  29.97"
Mon 11:00 AM  70.2°F  70°F  4 mph SE  2 mph  7 mph  0.00"  47%  54%  48°F  52°F  29.98"
Mon 10:00 AM  63.5°F  66°F  1 mph N  2 mph  5 mph  0.00"  61%  62%  49°F  52°F  29.98"
Mon 09:00 AM  60.1°F  62°F  calm  2 mph  5 mph  0.00"  68%  74%  49°F  53°F  29.96"
Mon 08:00 AM  59.4°F  57°F  3 mph NE  1 mph  6 mph  0.00"  71%  85%  50°F  52°F  29.95"
Mon 07:00 AM  58.7°F  51°F  2 mph E  1 mph  5 mph  0.00"  74%  89%  50°F  48°F  29.93"
Mon 06:00 AM  58.0°F  51°F  2 mph SW  1 mph  6 mph  0.00"  73%  88%  49°F  48°F  29.92"
Mon 05:00 AM  57.6°F  52°F  calm  1 mph  6 mph  0.00"  75%  88%  49°F  48°F  29.91"
3Mon 04:07 AM  56.6°F  52°F  calm  1 mph  none  ----  78%  87%  50°F  48°F  29.89"
Mon 04:00 AM  56.6°F  52°F  calm  1 mph  1 mph  0.00"  78%  87%  49°F  48°F  29.89"
Mon 03:00 AM  57.7°F  53°F  calm  1 mph  5 mph  0.00"  77%  86%  50°F  49°F  29.90"
Mon 02:00 AM  57.2°F  54°F  calm  1 mph  5 mph  0.00"  80%  84%  51°F  49°F  29.89"
Mon 01:00 AM  57.2°F  55°F  2 mph W  1 mph  2 mph  0.00"  78%  83%  50°F  50°F  29.91"
Mon 12:00 AM  58.4°F  56°F  calm  1 mph  4 mph  0.00"  77%  81%  51°F  50°F  29.92"
Sun 11:00 PM  59.2°F  57°F  calm  1 mph  8 mph  0.00"  76%  80%  51°F  51°F  29.91"
Sun 10:00 PM  61.6°F  59°F  5 mph E  2 mph  8 mph  0.00"  67%  76%  50°F  51°F  29.90"
Sun 09:00 PM  63.7°F  61°F  3 mph E  2 mph  8 mph  0.00"  60%  72%  49°F  51°F  29.90"
Sun 08:00 PM  65.4°F  63°F  4 mph SE  4 mph  12 mph  0.00"  56%  66%  49°F  51°F  29.86"
Sun 07:00 PM  71.6°F  68°F  4 mph SW  5 mph  19 mph  0.00"  42%  58%  46°F  52°F  29.85"
Sun 06:00 PM  76.4°F  72°F  4 mph SW  6 mph  27 mph  0.00"  34%  51%  45°F  52°F  29.83"
Sun 05:00 PM  80.5°F  75°F  10 mph SW  7 mph  26 mph  0.00"  24%  47%  40°F  53°F  29.82"
Sun 04:00 PM  84.3°F  76°F  10 mph SW  7 mph  24 mph  0.00"  20%  45%  37°F  53°F  29.83"
Sun 03:00 PM  86.5°F  77°F  4 mph S  5 mph  21 mph  0.00"  20%  43%  39°F  52°F  29.84"
Sun 02:00 PM  87.5°F  77°F  12 mph SW  4 mph  22 mph  0.00"  17%  43%  35°F  52°F  29.85"
Sun 01:30 PM  88.1°F  76°F  calm  4 mph  none  0.00"  12%  43%  26°F  51°F  29.85"

  1. Current weather data. No green row appears if the current weather data is also the high or low for the current day.
  2. High temperature for the current day.
  3. Low temperature for the current day.

The Lake Elsinore, California weather pages are a service of WeatherCurrents. Lake Elsinore is located south of Corona and north of the Temecula Valley, in southwestern Riverside County, California.
Copyright ©Mon Apr 24 19:44:24 PDT 2017  WeatherCurrents. All rights reserved. - Submit questions and comments - Privacy Policy

This page automatically refreshes every 10 minutes.